Search for airport 
image banner adimage banner adimage banner ad
image banner ad

70N - Spring Hill

Located in Sterling, United States

ICAO - 70N, IATA -

Data provided by Airmate  

General information

Coordinates: N41°20'50" W75°24'57"
Elevation is 1729 feet MSL.
Magnetic variation is -12° East
View others Airports in Pennsylvania

Operational data

Special qualification required
Current time UTC:
Current local time:
Weather at : KMPO - Pocono Mountains Muni ( 23 km )
METAR: KMPO 132007Z AUTO 20005KT 10SM BKN014 OVC020 19/17 A2993 RMK AO2 T01940172 $
View NOTAMs / SUP AIP / TFR affecting this airport [VIEW]
Communications frequencies: [VIEW]

Runways:

RWY identifierQFULength (ft)Width (ft)SurfaceLDA (ft)
0539°247842ASPH
23219°247842ASPH

Airport contact information

Address: Sterling United States

Satellite view of 70N